createdAt,value
2023-04-02T00:00:04.337Z,983.39
2023-04-02T00:01:04.338Z,983.37
2023-04-02T00:02:04.359Z,983.38
2023-04-02T00:03:04.433Z,983.46
2023-04-02T00:04:04.371Z,983.46
2023-04-02T00:05:04.306Z,983.43
2023-04-02T00:06:04.283Z,983.48
2023-04-02T00:07:04.285Z,983.44
2023-04-02T00:08:04.874Z,983.48
2023-04-02T00:09:05.270Z,983.45
2023-04-02T00:10:04.272Z,983.49
2023-04-02T00:11:04.247Z,983.49
2023-04-02T00:12:04.242Z,983.49
2023-04-02T00:13:05.201Z,983.53
2023-04-02T00:14:04.218Z,983.53
2023-04-02T00:15:04.227Z,983.50
2023-04-02T00:16:04.240Z,983.54
2023-04-02T00:17:05.785Z,983.54
2023-04-02T00:18:04.219Z,983.54
2023-04-02T00:19:04.187Z,983.61
2023-04-02T00:20:04.173Z,983.62
2023-04-02T00:21:04.167Z,983.64
2023-04-02T00:23:34.079Z,983.68
2023-04-02T00:24:35.182Z,983.70
2023-04-02T00:25:35.388Z,983.72
2023-04-02T00:26:36.988Z,983.70
2023-04-02T00:27:35.137Z,983.75
2023-04-02T00:28:37.003Z,983.73
2023-04-02T00:29:35.117Z,983.74
2023-04-02T00:30:35.145Z,983.77
2023-04-02T00:31:37.061Z,983.78
2023-04-02T00:32:35.136Z,983.79
2023-04-02T00:33:37.918Z,983.84
2023-04-02T00:34:35.103Z,983.87
2023-04-02T00:35:36.362Z,983.84
2023-04-02T00:36:35.083Z,983.96
2023-04-02T00:37:35.066Z,983.98
2023-04-02T00:38:35.060Z,983.98
2023-04-02T00:39:35.052Z,984.09
2023-04-02T00:40:35.915Z,984.05
2023-04-02T00:41:35.039Z,984.18
2023-04-02T00:42:35.010Z,984.10
2023-04-02T00:43:35.021Z,984.07
2023-04-02T00:44:35.012Z,984.13
2023-04-02T00:45:35.115Z,984.14
2023-04-02T00:46:34.982Z,984.16
2023-04-02T00:47:34.984Z,984.30
2023-04-02T00:48:34.961Z,984.22
2023-04-02T00:49:34.967Z,984.27
2023-04-02T00:50:34.957Z,984.19
2023-04-02T00:51:34.945Z,984.31
2023-04-02T00:52:34.945Z,984.34
2023-04-02T00:53:34.932Z,984.36
2023-04-02T00:54:34.925Z,984.32
2023-04-02T00:55:35.367Z,984.36
2023-04-02T00:56:34.915Z,984.40
2023-04-02T00:57:34.949Z,984.41
2023-04-02T00:58:34.888Z,984.40
2023-04-02T00:59:35.017Z,984.52
2023-04-02T01:00:34.874Z,984.53
2023-04-02T01:01:35.050Z,984.45
2023-04-02T01:02:34.898Z,984.41
2023-04-02T01:03:35.359Z,984.53
2023-04-02T01:04:39.131Z,984.55
2023-04-02T01:05:36.926Z,984.60
2023-04-02T01:06:37.499Z,984.65
2023-04-02T01:07:34.811Z,984.71
2023-04-02T01:08:34.820Z,984.68
2023-04-02T01:09:34.797Z,984.63
2023-04-02T01:10:34.794Z,984.63
2023-04-02T01:11:34.783Z,984.70
2023-04-02T01:12:34.787Z,984.71
2023-04-02T01:13:34.773Z,984.74
2023-04-02T01:14:34.779Z,984.79
2023-04-02T01:15:34.990Z,984.78
2023-04-02T01:16:34.753Z,984.75
2023-04-02T01:17:34.755Z,984.74
2023-04-02T01:18:34.720Z,984.88
2023-04-02T01:19:34.732Z,984.79
2023-04-02T01:20:34.719Z,984.80
2023-04-02T01:21:34.712Z,984.85
2023-04-02T01:22:34.699Z,984.91
2023-04-02T01:23:34.702Z,984.82
2023-04-02T01:24:34.690Z,984.83
2023-04-02T01:25:34.870Z,984.90
2023-04-02T01:26:34.667Z,984.91
2023-04-02T01:27:34.655Z,984.94
2023-04-02T01:28:34.642Z,984.95
2023-04-02T01:29:34.664Z,985.01
2023-04-02T01:30:35.492Z,985.00
2023-04-02T01:31:34.696Z,985.08
2023-04-02T01:32:34.632Z,985.05
2023-04-02T01:33:34.622Z,985.13
2023-04-02T01:34:34.609Z,985.06
2023-04-02T01:35:34.779Z,985.19
2023-04-02T01:36:34.575Z,985.17
2023-04-02T01:37:34.585Z,985.19
2023-04-02T01:38:34.579Z,985.23
2023-04-02T01:39:34.568Z,985.26
2023-04-02T01:40:34.564Z,985.28
2023-04-02T01:41:34.539Z,985.28
2023-04-02T01:42:34.518Z,985.26
2023-04-02T01:43:34.528Z,985.24
2023-04-02T01:44:34.528Z,985.26
2023-04-02T01:45:34.580Z,985.40
2023-04-02T01:46:34.533Z,985.36
2023-04-02T01:47:34.529Z,985.48
2023-04-02T01:48:34.483Z,985.40
2023-04-02T01:49:34.504Z,985.30
2023-04-02T01:50:34.466Z,985.52
2023-04-02T01:51:34.457Z,985.52
2023-04-02T01:52:34.454Z,985.44
2023-04-02T01:53:34.449Z,985.52
2023-04-02T01:54:34.442Z,985.50
2023-04-02T01:55:34.584Z,985.57
2023-04-02T01:56:36.985Z,985.68
2023-04-02T01:57:35.471Z,985.60
2023-04-02T01:58:34.400Z,985.58
2023-04-02T01:59:35.904Z,985.59
2023-04-02T02:00:34.425Z,985.64
2023-04-02T02:01:34.368Z,985.67
2023-04-02T02:02:34.524Z,985.63
2023-04-02T02:03:34.360Z,985.71
2023-04-02T02:04:34.379Z,985.69
2023-04-02T02:05:34.616Z,985.69
2023-04-02T02:06:34.344Z,985.69
2023-04-02T02:07:34.327Z,985.74
2023-04-02T02:08:34.312Z,985.86
2023-04-02T02:09:34.313Z,985.82
2023-04-02T02:10:34.300Z,985.82
2023-04-02T02:11:34.316Z,985.83
2023-04-02T02:12:35.299Z,985.82
2023-04-02T02:13:34.280Z,985.88
2023-04-02T02:14:34.937Z,985.89
2023-04-02T02:15:34.562Z,985.82
2023-04-02T02:16:34.291Z,985.92
2023-04-02T02:17:34.257Z,985.95
2023-04-02T02:18:34.284Z,985.90
2023-04-02T02:19:34.227Z,985.91
2023-04-02T02:20:34.248Z,986.06
2023-04-02T02:21:34.220Z,986.04
2023-04-02T02:22:34.226Z,986.01
2023-04-02T02:23:34.211Z,986.01
2023-04-02T02:24:34.199Z,986.02
2023-04-02T02:25:34.480Z,986.10
2023-04-02T02:26:36.036Z,986.06
2023-04-02T02:27:34.172Z,986.16
2023-04-02T02:28:34.169Z,986.20
2023-04-02T02:29:34.156Z,986.21
2023-04-02T02:30:34.144Z,986.20
2023-04-02T02:31:34.165Z,986.17
2023-04-02T02:32:34.158Z,986.17
2023-04-02T02:33:34.145Z,986.15
2023-04-02T02:34:34.114Z,986.22
2023-04-02T02:35:34.505Z,986.28
2023-04-02T02:36:34.106Z,986.40
2023-04-02T02:37:34.095Z,986.37
2023-04-02T02:38:34.081Z,986.40
2023-04-02T02:39:34.548Z,986.45
2023-04-02T02:40:34.055Z,986.43
2023-04-02T02:41:34.059Z,986.41
2023-04-02T02:42:34.050Z,986.49
2023-04-02T02:43:34.049Z,986.39
2023-04-02T02:44:34.054Z,986.47
2023-04-02T02:45:34.304Z,986.49
2023-04-02T02:46:34.038Z,986.50
2023-04-02T02:47:33.998Z,986.57
2023-04-02T02:48:34.003Z,986.55
2023-04-02T02:49:34.011Z,986.53
2023-04-02T02:50:33.991Z,986.63
2023-04-02T02:51:33.991Z,986.59
2023-04-02T02:52:33.986Z,986.60
2023-04-02T02:53:33.956Z,986.65
2023-04-02T02:54:33.953Z,986.66
2023-04-02T02:55:34.299Z,986.74
2023-04-02T02:56:33.934Z,986.87
2023-04-02T02:57:34.006Z,986.74
2023-04-02T02:58:33.912Z,986.75
2023-04-02T02:59:33.917Z,986.78
2023-04-02T03:00:35.516Z,986.72
2023-04-02T03:01:33.949Z,986.84
2023-04-02T03:02:33.946Z,986.78
2023-04-02T03:03:34.280Z,986.93
2023-04-02T03:04:33.877Z,986.84
2023-04-02T03:05:34.965Z,986.81
2023-04-02T03:06:33.878Z,986.85
2023-04-02T03:07:33.841Z,986.79
2023-04-02T03:08:33.843Z,986.86
2023-04-02T03:09:33.830Z,986.93
2023-04-02T03:10:33.823Z,986.94
2023-04-02T03:11:33.818Z,986.98
2023-04-02T03:12:33.803Z,986.99
2023-04-02T03:13:33.797Z,986.97
2023-04-02T03:14:33.802Z,986.98
2023-04-02T03:15:34.112Z,987.04
2023-04-02T03:16:33.783Z,987.06
2023-04-02T03:17:33.772Z,987.10
2023-04-02T03:18:33.753Z,987.19
2023-04-02T03:19:33.744Z,987.16
2023-04-02T03:20:33.753Z,987.15
2023-04-02T03:21:33.744Z,987.31
2023-04-02T03:22:33.734Z,987.32
2023-04-02T03:23:33.728Z,987.35
2023-04-02T03:24:33.711Z,987.37
2023-04-02T03:25:34.004Z,987.39
2023-04-02T03:26:33.701Z,987.31
2023-04-02T03:27:33.693Z,987.34
2023-04-02T03:28:33.685Z,987.36
2023-04-02T03:29:33.680Z,987.39
2023-04-02T03:30:34.059Z,987.46
2023-04-02T03:31:33.689Z,987.44
2023-04-02T03:32:33.714Z,987.47
2023-04-02T03:33:33.646Z,987.49
2023-04-02T03:34:33.631Z,987.52
2023-04-02T03:35:34.001Z,987.51
2023-04-02T03:36:33.613Z,987.54
2023-04-02T03:37:33.621Z,987.53
2023-04-02T03:38:33.595Z,987.61
2023-04-02T03:39:33.598Z,987.59
2023-04-02T03:40:33.590Z,987.67
2023-04-02T03:41:33.597Z,987.62
2023-04-02T03:42:33.570Z,987.70
2023-04-02T03:43:33.576Z,987.64
2023-04-02T03:44:33.553Z,987.70
2023-04-02T03:45:33.779Z,987.74
2023-04-02T03:46:33.554Z,987.71
2023-04-02T03:47:33.577Z,987.80
2023-04-02T03:48:33.532Z,987.78
2023-04-02T03:49:33.511Z,987.80
2023-04-02T03:50:33.519Z,987.84
2023-04-02T03:51:33.507Z,987.79
2023-04-02T03:52:33.507Z,987.81
2023-04-02T03:53:34.496Z,987.95
2023-04-02T03:54:33.496Z,987.99
2023-04-02T03:55:33.838Z,987.89
2023-04-02T03:56:33.461Z,987.90
2023-04-02T03:57:33.480Z,987.91
2023-04-02T03:58:33.444Z,987.92
2023-04-02T03:59:33.445Z,987.96
2023-04-02T04:00:33.429Z,988.01
2023-04-02T04:01:33.448Z,988.09
2023-04-02T04:02:34.072Z,987.99
2023-04-02T04:03:33.405Z,988.07
2023-04-02T04:04:33.438Z,988.03
2023-04-02T04:05:33.631Z,988.13
2023-04-02T04:06:34.387Z,988.15
2023-04-02T04:07:33.364Z,988.14
2023-04-02T04:08:33.372Z,988.20
2023-04-02T04:09:33.391Z,988.20
2023-04-02T04:10:33.349Z,988.22
2023-04-02T04:11:33.339Z,988.17
2023-04-02T04:12:33.326Z,988.21
2023-04-02T04:13:34.321Z,988.36
2023-04-02T04:14:33.324Z,988.30
2023-04-02T04:15:33.656Z,988.31
2023-04-02T04:16:33.345Z,988.19
2023-04-02T04:17:33.299Z,988.37
2023-04-02T04:18:33.278Z,988.37
2023-04-02T04:19:33.266Z,988.42
2023-04-02T04:20:34.292Z,988.42
2023-04-02T04:21:33.271Z,988.36
2023-04-02T04:22:33.256Z,988.42
2023-04-02T04:23:33.264Z,988.48
2023-04-02T04:24:33.244Z,988.45
2023-04-02T04:25:33.466Z,988.44
2023-04-02T04:26:33.233Z,988.54
2023-04-02T04:27:35.054Z,988.49
2023-04-02T04:28:33.216Z,988.56
2023-04-02T04:29:33.198Z,988.60
2023-04-02T04:30:33.203Z,988.57
2023-04-02T04:31:33.229Z,988.60
2023-04-02T04:32:33.211Z,988.65
2023-04-02T04:33:33.979Z,988.67
2023-04-02T04:34:33.172Z,988.66
2023-04-02T04:35:33.208Z,988.88
2023-04-02T04:36:33.153Z,988.75
2023-04-02T04:37:33.142Z,988.80
2023-04-02T04:38:33.158Z,988.80
2023-04-02T04:39:33.118Z,988.78
2023-04-02T04:40:33.109Z,988.93
2023-04-02T04:41:33.110Z,988.86
2023-04-02T04:42:33.123Z,988.90
2023-04-02T04:43:33.105Z,988.83
2023-04-02T04:44:33.085Z,989.02
2023-04-02T04:45:33.231Z,988.93
2023-04-02T04:46:33.079Z,988.89
2023-04-02T04:47:33.090Z,988.90
2023-04-02T04:48:35.230Z,988.97
2023-04-02T04:49:34.030Z,988.98
2023-04-02T04:50:34.037Z,988.99
2023-04-02T04:51:33.048Z,989.06
2023-04-02T04:52:33.048Z,989.20
2023-04-02T04:53:33.042Z,989.06
2023-04-02T04:54:32.994Z,989.17
2023-04-02T04:55:34.240Z,989.16
2023-04-02T04:56:33.022Z,989.14
2023-04-02T04:57:32.991Z,989.15
2023-04-02T04:58:32.994Z,989.17
2023-04-02T04:59:32.969Z,989.17
2023-04-02T05:00:32.981Z,989.29
2023-04-02T05:01:33.062Z,989.24
2023-04-02T05:02:32.960Z,989.22
2023-04-02T05:03:32.945Z,989.26
2023-04-02T05:04:32.978Z,989.27
2023-04-02T05:05:33.110Z,989.28
2023-04-02T05:06:32.923Z,989.34
2023-04-02T05:07:32.914Z,989.34
2023-04-02T05:08:32.913Z,989.39
2023-04-02T05:09:32.899Z,989.38
2023-04-02T05:10:32.897Z,989.47
2023-04-02T05:11:32.874Z,989.58
2023-04-02T05:12:32.884Z,989.81
2023-04-02T05:13:32.899Z,989.53
2023-04-02T05:14:32.865Z,989.48
2023-04-02T05:15:32.890Z,989.60
2023-04-02T05:16:32.933Z,989.70
2023-04-02T05:17:32.909Z,989.70
2023-04-02T05:18:32.832Z,989.60
2023-04-02T05:19:32.834Z,989.65
2023-04-02T05:20:32.839Z,989.71
2023-04-02T05:21:32.804Z,989.63
2023-04-02T05:22:32.786Z,989.78
2023-04-02T05:23:34.464Z,989.77
2023-04-02T05:24:32.773Z,989.77
2023-04-02T05:25:32.943Z,989.81
2023-04-02T05:26:32.754Z,989.86
2023-04-02T05:27:32.761Z,989.95
2023-04-02T05:28:32.744Z,989.89
2023-04-02T05:29:32.737Z,989.82
2023-04-02T05:30:32.743Z,989.81
2023-04-02T05:31:32.773Z,989.89
2023-04-02T05:32:32.738Z,989.87
2023-04-02T05:33:32.719Z,989.84
2023-04-02T05:34:32.698Z,989.93
2023-04-02T05:35:32.694Z,989.92
2023-04-02T05:36:32.692Z,990.08
2023-04-02T05:37:32.674Z,989.98
2023-04-02T05:38:32.661Z,990.16
2023-04-02T05:39:32.660Z,990.02
2023-04-02T05:40:32.648Z,990.02
2023-04-02T05:41:32.648Z,990.07
2023-04-02T05:42:32.637Z,990.07
2023-04-02T05:43:33.552Z,990.05
2023-04-02T05:44:32.618Z,990.14
2023-04-02T05:45:32.699Z,990.12
2023-04-02T05:46:32.655Z,990.22
2023-04-02T05:47:32.655Z,990.20
2023-04-02T05:48:32.613Z,990.25
2023-04-02T05:49:32.596Z,990.33
2023-04-02T05:50:32.569Z,990.39
2023-04-02T05:51:33.552Z,990.30
2023-04-02T05:52:32.546Z,990.38
2023-04-02T05:53:32.558Z,990.49
2023-04-02T05:54:32.584Z,990.35
2023-04-02T05:55:33.684Z,990.42
2023-04-02T05:56:32.530Z,990.50
2023-04-02T05:57:42.381Z,990.51
2023-04-02T05:58:36.712Z,990.59
2023-04-02T05:59:33.498Z,990.65
2023-04-02T06:00:32.483Z,990.64
2023-04-02T06:01:32.488Z,990.59
2023-04-02T06:02:32.547Z,990.54
2023-04-02T06:03:32.589Z,990.53
2023-04-02T06:04:32.447Z,990.65
2023-04-02T06:05:33.722Z,990.64
2023-04-02T06:06:32.450Z,990.73
2023-04-02T06:07:32.433Z,990.79
2023-04-02T06:08:32.424Z,990.76
2023-04-02T06:09:32.439Z,990.77
2023-04-02T06:10:33.010Z,990.83
2023-04-02T06:11:32.423Z,990.82
2023-04-02T06:12:35.064Z,990.76
2023-04-02T06:13:32.394Z,990.90
2023-04-02T06:14:32.409Z,990.98
2023-04-02T06:15:32.387Z,990.99
2023-04-02T06:16:32.394Z,991.01
2023-04-02T06:17:32.430Z,990.99
2023-04-02T06:18:32.379Z,990.95
2023-04-02T06:19:32.371Z,990.96
2023-04-02T06:20:32.358Z,991.04
2023-04-02T06:21:32.349Z,991.04
2023-04-02T06:22:33.968Z,991.12
2023-04-02T06:23:32.320Z,991.14
2023-04-02T06:24:32.338Z,991.15
2023-04-02T06:25:32.318Z,991.18
2023-04-02T06:26:32.293Z,991.19
2023-04-02T06:27:33.292Z,991.13
2023-04-02T06:28:32.935Z,991.08
2023-04-02T06:29:32.330Z,991.13
2023-04-02T06:30:36.138Z,991.20
2023-04-02T06:31:34.083Z,991.22
2023-04-02T06:32:32.345Z,991.24
2023-04-02T06:33:32.254Z,991.31
2023-04-02T06:34:32.233Z,991.21
2023-04-02T06:35:34.361Z,991.27
2023-04-02T06:36:32.242Z,991.27
2023-04-02T06:37:32.217Z,991.26
2023-04-02T06:38:32.211Z,991.33
2023-04-02T06:39:32.197Z,991.37
2023-04-02T06:40:32.181Z,991.37
2023-04-02T06:41:32.187Z,991.40
2023-04-02T06:42:32.179Z,991.48
2023-04-02T06:43:32.174Z,991.49
2023-04-02T06:44:32.155Z,991.48
2023-04-02T06:45:32.151Z,991.52
2023-04-02T06:46:32.273Z,991.51
2023-04-02T06:47:32.199Z,991.57
2023-04-02T06:48:32.184Z,991.71
2023-04-02T06:49:33.087Z,991.66
2023-04-02T06:50:32.114Z,991.60
2023-04-02T06:51:32.100Z,991.71
2023-04-02T06:52:34.057Z,991.81
2023-04-02T06:53:33.070Z,991.75
2023-04-02T06:54:32.096Z,991.82
2023-04-02T06:55:32.103Z,991.87
2023-04-02T06:56:32.065Z,991.83
2023-04-02T06:57:32.149Z,991.75
2023-04-02T06:58:32.052Z,991.99
2023-04-02T06:59:32.092Z,991.88
2023-04-02T07:00:32.050Z,992.05
2023-04-02T07:01:32.094Z,991.93
2023-04-02T07:02:32.097Z,992.00
2023-04-02T07:03:32.004Z,991.97
2023-04-02T07:04:32.047Z,992.00
2023-04-02T07:05:32.779Z,992.01
2023-04-02T07:06:33.562Z,992.01
2023-04-02T07:07:31.987Z,992.06
2023-04-02T07:08:31.983Z,992.03
2023-04-02T07:09:31.967Z,992.18
2023-04-02T07:10:31.978Z,992.16
2023-04-02T07:11:32.559Z,992.11
2023-04-02T07:12:31.951Z,992.18
2023-04-02T07:13:31.959Z,992.18
2023-04-02T07:14:31.941Z,992.25
2023-04-02T07:15:31.928Z,992.25
2023-04-02T07:16:31.978Z,992.22
2023-04-02T07:17:31.936Z,992.29
2023-04-02T07:18:31.910Z,992.35
2023-04-02T07:19:31.894Z,992.34
2023-04-02T07:20:31.878Z,992.41
2023-04-02T07:21:32.497Z,992.43
2023-04-02T07:22:31.870Z,992.39
2023-04-02T07:23:31.864Z,992.40
2023-04-02T07:24:31.877Z,992.44
2023-04-02T07:25:31.837Z,992.40
2023-04-02T07:26:31.837Z,992.54
2023-04-02T07:27:31.830Z,992.58
2023-04-02T07:28:31.797Z,992.51
2023-04-02T07:29:33.565Z,992.55
2023-04-02T07:30:31.821Z,992.62
2023-04-02T07:31:31.906Z,992.60
2023-04-02T07:32:31.843Z,992.77
2023-04-02T07:33:32.501Z,992.74
2023-04-02T07:34:31.776Z,992.68
2023-04-02T07:35:31.785Z,992.73
2023-04-02T07:36:31.741Z,992.76
2023-04-02T07:37:33.077Z,992.75
2023-04-02T07:38:31.737Z,992.85
2023-04-02T07:39:31.746Z,992.73
2023-04-02T07:40:31.718Z,992.73
2023-04-02T07:41:31.710Z,992.79
2023-04-02T07:42:31.736Z,992.78
2023-04-02T07:43:31.697Z,992.80
2023-04-02T07:44:31.701Z,992.83
2023-04-02T07:45:31.688Z,992.99
2023-04-02T07:46:31.684Z,992.88
2023-04-02T07:47:31.703Z,993.02
2023-04-02T07:48:31.661Z,992.85
2023-04-02T07:49:33.493Z,992.93
2023-04-02T07:50:31.642Z,993.22
2023-04-02T07:51:31.633Z,993.13
2023-04-02T07:52:31.616Z,993.05
2023-04-02T07:53:31.635Z,993.12
2023-04-02T07:54:32.503Z,993.23
2023-04-02T07:55:31.601Z,993.14
2023-04-02T07:56:31.593Z,993.11
2023-04-02T07:57:31.649Z,993.23
2023-04-02T07:58:31.571Z,993.24
2023-04-02T07:59:31.587Z,993.27
2023-04-02T08:00:31.571Z,993.20
2023-04-02T08:01:31.566Z,993.15
2023-04-02T08:02:32.583Z,993.28
2023-04-02T08:03:31.673Z,993.24
2023-04-02T08:04:31.536Z,993.24
2023-04-02T08:05:31.515Z,993.36
2023-04-02T08:06:32.093Z,993.34
2023-04-02T08:07:31.509Z,993.37
2023-04-02T08:08:31.523Z,993.42
2023-04-02T08:09:31.487Z,993.40
2023-04-02T08:10:31.497Z,993.40
2023-04-02T08:11:32.058Z,993.47
2023-04-02T08:12:32.473Z,993.52
2023-04-02T08:13:31.463Z,993.56
2023-04-02T08:14:31.452Z,993.54
2023-04-02T08:15:34.340Z,993.62
2023-04-02T08:16:31.466Z,993.57
2023-04-02T08:17:32.104Z,993.64
2023-04-02T08:18:31.438Z,993.60
2023-04-02T08:19:36.952Z,993.61
2023-04-02T08:20:33.408Z,993.75
2023-04-02T08:21:32.991Z,993.99
2023-04-02T08:22:31.424Z,993.79
2023-04-02T08:23:31.410Z,993.74
2023-04-02T08:24:31.382Z,993.78
2023-04-02T08:25:31.398Z,993.81
2023-04-02T08:26:31.369Z,993.90
2023-04-02T08:27:31.363Z,993.86
2023-04-02T08:28:31.356Z,993.96
2023-04-02T08:29:31.337Z,993.99
2023-04-02T08:30:31.494Z,993.94
2023-04-02T08:31:31.323Z,993.96
2023-04-02T08:32:31.354Z,993.95
2023-04-02T08:33:31.318Z,994.02
2023-04-02T08:34:31.329Z,994.21
2023-04-02T08:35:32.102Z,994.19
2023-04-02T08:36:31.313Z,994.20
2023-04-02T08:37:31.285Z,994.25
2023-04-02T08:38:31.294Z,994.19
2023-04-02T08:39:31.274Z,994.24
2023-04-02T08:40:31.258Z,994.16
2023-04-02T08:41:35.119Z,994.20
2023-04-02T08:42:31.233Z,994.30
2023-04-02T08:43:31.241Z,994.23
2023-04-02T08:44:31.230Z,994.21
2023-04-02T08:45:31.227Z,994.25
2023-04-02T08:46:31.345Z,994.31
2023-04-02T08:47:31.220Z,994.28
2023-04-02T08:48:31.199Z,994.40
2023-04-02T08:49:32.093Z,994.35
2023-04-02T08:50:31.201Z,994.39
2023-04-02T08:51:32.010Z,994.41
2023-04-02T08:52:32.016Z,994.41
2023-04-02T08:53:31.170Z,994.42
2023-04-02T08:54:31.155Z,994.44
2023-04-02T08:55:32.195Z,994.43
2023-04-02T08:56:31.133Z,994.33
2023-04-02T08:57:32.136Z,994.40
2023-04-02T08:58:31.130Z,994.38
2023-04-02T08:59:31.109Z,994.45
2023-04-02T09:00:31.116Z,994.43
2023-04-02T09:01:31.109Z,994.51
2023-04-02T09:02:32.235Z,994.55
2023-04-02T09:03:31.099Z,994.55
2023-04-02T09:04:31.114Z,994.54
2023-04-02T09:05:31.068Z,994.60
2023-04-02T09:06:31.055Z,994.54
2023-04-02T09:07:31.088Z,994.61
2023-04-02T09:08:31.069Z,994.63
2023-04-02T09:09:31.050Z,994.60
2023-04-02T09:10:31.041Z,994.69
2023-04-02T09:11:31.035Z,994.64
2023-04-02T09:12:32.038Z,994.63
2023-04-02T09:13:31.042Z,994.63
2023-04-02T09:14:31.015Z,994.78
2023-04-02T09:15:32.624Z,994.74
2023-04-02T09:16:31.092Z,994.78
2023-04-02T09:17:36.946Z,994.85
2023-04-02T09:18:32.994Z,994.89
2023-04-02T09:19:30.957Z,994.86
2023-04-02T09:20:31.508Z,994.85
2023-04-02T09:21:30.968Z,994.88
2023-04-02T09:22:30.922Z,994.87
2023-04-02T09:23:31.976Z,995.03
2023-04-02T09:24:30.928Z,994.90
2023-04-02T09:25:30.918Z,994.97
2023-04-02T09:26:30.908Z,994.92
2023-04-02T09:27:30.919Z,995.08
2023-04-02T09:28:30.884Z,994.94
2023-04-02T09:29:30.894Z,994.99
2023-04-02T09:30:30.894Z,994.98
2023-04-02T09:31:30.891Z,995.07
2023-04-02T09:32:32.508Z,995.05
2023-04-02T09:33:30.867Z,995.19
2023-04-02T09:34:30.873Z,995.11
2023-04-02T09:35:30.845Z,995.07
2023-04-02T09:36:30.849Z,995.20
2023-04-02T09:37:30.831Z,995.18
2023-04-02T09:38:30.922Z,995.43
2023-04-02T09:39:30.821Z,995.09
2023-04-02T09:40:30.800Z,995.30
2023-04-02T09:41:30.786Z,995.19
2023-04-02T09:42:31.477Z,995.21
2023-04-02T09:43:30.776Z,995.28
2023-04-02T09:44:30.781Z,995.26
2023-04-02T09:45:31.601Z,995.36
2023-04-02T09:46:31.766Z,995.34
2023-04-02T09:48:37.049Z,995.17
2023-04-02T09:49:37.055Z,995.28
2023-04-02T09:50:38.139Z,995.23
2023-04-02T09:51:38.117Z,995.28
2023-04-02T09:52:38.124Z,995.28
2023-04-02T09:53:41.127Z,995.31
2023-04-02T09:54:38.120Z,995.28
2023-04-02T09:55:38.083Z,995.40
2023-04-02T09:56:39.914Z,995.35
2023-04-02T09:57:38.073Z,995.43
2023-04-02T09:58:38.092Z,995.54
2023-04-02T09:59:39.905Z,995.48
2023-04-02T10:00:38.050Z,995.51
2023-04-02T10:01:38.119Z,995.53
2023-04-02T10:02:38.060Z,995.54
2023-04-02T10:03:38.033Z,995.50
2023-04-02T10:04:38.085Z,995.50
2023-04-02T10:05:40.972Z,995.56
2023-04-02T10:06:39.006Z,995.58
2023-04-02T10:07:37.983Z,995.72
2023-04-02T10:08:38.914Z,995.76
2023-04-02T10:09:37.969Z,995.72
2023-04-02T10:10:37.986Z,995.79
2023-04-02T10:11:46.216Z,995.76
2023-04-02T10:12:39.956Z,995.63
2023-04-02T10:13:37.957Z,995.67
2023-04-02T10:14:37.946Z,995.73
2023-04-02T10:15:38.194Z,995.67
2023-04-02T10:16:37.952Z,995.80
2023-04-02T10:17:37.998Z,995.68
2023-04-02T10:18:37.920Z,995.80
2023-04-02T10:19:37.908Z,995.87
2023-04-02T10:20:50.542Z,995.92
2023-04-02T10:21:39.889Z,995.92
2023-04-02T10:22:37.888Z,995.80
2023-04-02T10:23:37.880Z,995.98
2023-04-02T10:24:38.393Z,995.99
2023-04-02T10:25:37.908Z,995.95
2023-04-02T10:26:37.853Z,995.92
2023-04-02T10:27:37.846Z,995.97
2023-04-02T10:28:37.827Z,996.02
2023-04-02T10:29:37.855Z,996.06
2023-04-02T10:31:25.311Z,995.95
2023-04-02T10:32:25.273Z,996.16
2023-04-02T10:33:25.220Z,996.13
2023-04-02T10:34:25.222Z,996.22
2023-04-02T10:35:28.101Z,996.14
2023-04-02T10:36:26.286Z,996.20
2023-04-02T10:37:26.291Z,996.15
2023-04-02T10:38:26.279Z,996.15
2023-04-02T10:39:26.271Z,996.38
2023-04-02T10:40:26.279Z,996.19
2023-04-02T10:41:26.264Z,996.29
2023-04-02T10:42:26.318Z,996.26
2023-04-02T10:43:26.263Z,996.33
2023-04-02T10:44:26.268Z,996.27
2023-04-02T10:45:26.247Z,996.20
2023-04-02T10:46:26.277Z,996.37
2023-04-02T10:47:27.308Z,996.37
2023-04-02T10:48:26.212Z,996.37
2023-04-02T10:49:26.289Z,996.48
2023-04-02T10:50:26.228Z,996.51
2023-04-02T10:51:28.091Z,996.46
2023-04-02T10:52:26.199Z,996.46
2023-04-02T10:53:26.197Z,996.37
2023-04-02T10:54:26.671Z,996.38
2023-04-02T10:55:26.163Z,996.49
2023-04-02T10:56:26.144Z,996.51
2023-04-02T10:57:27.107Z,996.52
2023-04-02T10:58:26.127Z,996.43
2023-04-02T10:59:26.162Z,996.44
2023-04-02T11:00:27.661Z,996.51
2023-04-02T11:01:26.138Z,996.59
2023-04-02T11:02:26.173Z,996.51
2023-04-02T11:03:26.211Z,996.58
2023-04-02T11:04:27.668Z,996.50
2023-04-02T11:05:26.079Z,996.56
2023-04-02T11:06:26.073Z,996.57
2023-04-02T11:07:26.068Z,996.51
2023-04-02T11:08:26.087Z,996.63
2023-04-02T11:09:26.050Z,996.62
2023-04-02T11:10:26.043Z,996.66
2023-04-02T11:11:26.034Z,996.76
2023-04-02T11:12:26.032Z,996.69
2023-04-02T11:13:26.004Z,996.67
2023-04-02T11:14:26.593Z,996.74
2023-04-02T11:15:26.655Z,996.73
2023-04-02T11:16:26.025Z,996.69
2023-04-02T11:17:26.022Z,996.77
2023-04-02T11:18:25.993Z,996.65
2023-04-02T11:19:25.962Z,996.66
2023-04-02T11:20:25.973Z,996.71
2023-04-02T11:21:25.947Z,996.71
2023-04-02T11:22:26.671Z,996.70
2023-04-02T11:23:25.937Z,996.73
2023-04-02T11:24:25.927Z,996.81
2023-04-02T11:25:25.909Z,996.85
2023-04-02T11:26:25.902Z,996.82
2023-04-02T11:27:25.903Z,996.82
2023-04-02T11:28:25.895Z,996.91
2023-04-02T11:29:25.896Z,996.88
2023-04-02T11:30:25.959Z,996.84
2023-04-02T11:31:25.960Z,996.97
2023-04-02T11:32:25.889Z,996.92
2023-04-02T11:33:35.849Z,996.88
2023-04-02T11:34:28.617Z,996.94
2023-04-02T11:35:25.859Z,996.95
2023-04-02T11:36:25.911Z,996.91
2023-04-02T11:37:25.819Z,997.14
2023-04-02T11:38:25.832Z,997.01
2023-04-02T11:39:25.838Z,997.04
2023-04-02T11:40:25.784Z,997.12
2023-04-02T11:41:25.811Z,997.06
2023-04-02T11:42:25.795Z,997.09
2023-04-02T11:43:26.671Z,997.11
2023-04-02T11:44:25.756Z,997.06
2023-04-02T11:45:37.617Z,997.11
2023-04-02T11:46:26.825Z,997.17
2023-04-02T11:47:25.783Z,997.18
2023-04-02T11:48:25.744Z,997.23
2023-04-02T11:49:25.721Z,997.27
2023-04-02T11:50:25.891Z,997.24
2023-04-02T11:51:25.705Z,997.26
2023-04-02T11:52:25.714Z,997.27
2023-04-02T11:53:26.687Z,997.26
2023-04-02T11:54:25.684Z,997.31
2023-04-02T11:55:25.674Z,997.30
2023-04-02T11:56:25.657Z,997.28
2023-04-02T11:57:25.719Z,997.27
2023-04-02T11:58:25.648Z,997.34
2023-04-02T11:59:25.669Z,997.36
2023-04-02T12:00:25.626Z,997.43
2023-04-02T12:01:25.626Z,997.34
2023-04-02T12:02:25.750Z,997.38
2023-04-02T12:03:25.629Z,997.49
2023-04-02T12:04:25.612Z,997.40
2023-04-02T12:05:25.634Z,997.42
2023-04-02T12:06:25.626Z,997.48
2023-04-02T12:07:25.578Z,997.58
2023-04-02T12:08:25.572Z,997.49
2023-04-02T12:09:25.563Z,997.55
2023-04-02T12:10:25.561Z,997.49
2023-04-02T12:11:25.563Z,997.61
2023-04-02T12:12:25.617Z,997.59
2023-04-02T12:13:25.552Z,997.57
2023-04-02T12:14:25.534Z,997.56
2023-04-02T12:15:25.523Z,997.74
2023-04-02T12:16:25.543Z,997.61
2023-04-02T12:17:25.535Z,997.63
2023-04-02T12:18:25.504Z,997.72
2023-04-02T12:19:25.487Z,997.67
2023-04-02T12:20:25.492Z,997.74
2023-04-02T12:21:27.206Z,997.73
2023-04-02T12:22:25.485Z,997.81
2023-04-02T12:23:25.451Z,997.79
2023-04-02T12:24:25.438Z,997.77
2023-04-02T12:25:25.463Z,997.78
2023-04-02T12:26:25.428Z,997.76
2023-04-02T12:27:25.432Z,997.72
2023-04-02T12:28:25.474Z,997.85
2023-04-02T12:29:25.453Z,997.86
2023-04-02T12:30:25.402Z,997.90
2023-04-02T12:31:25.437Z,997.92